ΕΜΥ, Εθνική Μετεωρολογική Υπηρεσία - Δελτία Καιρού, Προγνώσεις

ΑΕΡΟΝΑΥΤΙΛΙΑ

GREEK AIRPORTS CODES

LGKR 050420Z 35016KT 9999 SCT020 07/M01 Q1014 NOSIG=

EUROPEAN AIRPORTS CODES